sensor_id;sensor_type;location;lat;lon;timestamp;pressure;altitude;pressure_sealevel;temperature;humidity
71917;BME280;59793;46.506;6.674;2022-07-29T00:02:02;96900.91;;;23.53;38.02
71917;BME280;59793;46.506;6.674;2022-07-29T00:04:28;96899.09;;;23.62;37.51
71917;BME280;59793;46.506;6.674;2022-07-29T00:06:53;96902.53;;;23.63;37.34
71917;BME280;59793;46.506;6.674;2022-07-29T00:09:19;96908.91;;;23.69;37.21
71917;BME280;59793;46.506;6.674;2022-07-29T00:11:44;96904.06;;;23.77;37.03
71917;BME280;59793;46.506;6.674;2022-07-29T00:14:09;96900.06;;;23.81;37.08
71917;BME280;59793;46.506;6.674;2022-07-29T00:16:35;96894.69;;;23.81;37.15
71917;BME280;59793;46.506;6.674;2022-07-29T00:19:00;96890.84;;;23.82;37.12
71917;BME280;59793;46.506;6.674;2022-07-29T00:21:26;96890.50;;;23.80;37.32
71917;BME280;59793;46.506;6.674;2022-07-29T00:23:51;96889.22;;;23.72;37.52
71917;BME280;59793;46.506;6.674;2022-07-29T00:26:16;96895.13;;;23.67;38.08
71917;BME280;59793;46.506;6.674;2022-07-29T00:28:42;96901.59;;;23.57;38.85
71917;BME280;59793;46.506;6.674;2022-07-29T00:31:07;96899.41;;;23.52;38.95
71917;BME280;59793;46.506;6.674;2022-07-29T00:33:33;96900.72;;;23.47;38.90
71917;BME280;59793;46.506;6.674;2022-07-29T00:35:58;96906.06;;;23.34;38.79
71917;BME280;59793;46.506;6.674;2022-07-29T00:38:24;96903.16;;;23.29;38.96
71917;BME280;59793;46.506;6.674;2022-07-29T00:40:49;96902.50;;;23.12;39.79
71917;BME280;59793;46.506;6.674;2022-07-29T00:43:15;96901.84;;;23.08;39.84
71917;BME280;59793;46.506;6.674;2022-07-29T00:45:42;96903.00;;;23.07;40.20
71917;BME280;59793;46.506;6.674;2022-07-29T00:48:07;96910.94;;;22.98;40.43
71917;BME280;59793;46.506;6.674;2022-07-29T00:50:34;96904.56;;;22.91;40.64
71917;BME280;59793;46.506;6.674;2022-07-29T00:53:00;96908.19;;;22.56;41.09
71917;BME280;59793;46.506;6.674;2022-07-29T00:55:26;96902.00;;;22.42;41.45
71917;BME280;59793;46.506;6.674;2022-07-29T00:57:52;96901.00;;;22.36;41.53
71917;BME280;59793;46.506;6.674;2022-07-29T01:00:20;96904.78;;;22.39;41.83
71917;BME280;59793;46.506;6.674;2022-07-29T01:02:46;96899.00;;;22.24;42.18
71917;BME280;59793;46.506;6.674;2022-07-29T01:05:18;96894.47;;;22.05;42.48
71917;BME280;59793;46.506;6.674;2022-07-29T01:07:45;96891.47;;;22.19;42.07
71917;BME280;59793;46.506;6.674;2022-07-29T01:10:12;96896.06;;;22.35;41.75
71917;BME280;59793;46.506;6.674;2022-07-29T01:12:38;96908.88;;;22.43;41.71
71917;BME280;59793;46.506;6.674;2022-07-29T01:15:06;96910.22;;;22.52;41.56
71917;BME280;59793;46.506;6.674;2022-07-29T01:18:11;96907.53;;;22.52;41.40
71917;BME280;59793;46.506;6.674;2022-07-29T01:23:50;96909.31;;;22.71;40.71
71917;BME280;59793;46.506;6.674;2022-07-29T01:27:30;96902.31;;;22.90;40.26
71917;BME280;59793;46.506;6.674;2022-07-29T01:29:30;96904.94;;;22.94;40.53
71917;BME280;59793;46.506;6.674;2022-07-29T01:32:15;96911.59;;;23.02;40.44
71917;BME280;59793;46.506;6.674;2022-07-29T01:35:02;96900.78;;;23.18;39.65
71917;BME280;59793;46.506;6.674;2022-07-29T01:37:59;96912.84;;;23.26;40.07
71917;BME280;59793;46.506;6.674;2022-07-29T01:40:35;96914.56;;;23.33;40.48
71917;BME280;59793;46.506;6.674;2022-07-29T01:43:03;96911.97;;;23.29;39.98
71917;BME280;59793;46.506;6.674;2022-07-29T01:45:38;96902.28;;;23.32;39.07
71917;BME280;59793;46.506;6.674;2022-07-29T01:51:49;96911.13;;;23.45;40.38
71917;BME280;59793;46.506;6.674;2022-07-29T01:54:24;96910.16;;;23.26;40.57
71917;BME280;59793;46.506;6.674;2022-07-29T01:56:53;96901.81;;;22.95;41.06
71917;BME280;59793;46.506;6.674;2022-07-29T01:59:21;96901.88;;;22.62;41.87
71917;BME280;59793;46.506;6.674;2022-07-29T02:01:47;96902.94;;;22.65;41.85
71917;BME280;59793;46.506;6.674;2022-07-29T02:04:15;96911.00;;;22.65;41.62
71917;BME280;59793;46.506;6.674;2022-07-29T02:06:43;96907.34;;;22.59;42.15
71917;BME280;59793;46.506;6.674;2022-07-29T02:09:10;96910.13;;;22.55;42.31
71917;BME280;59793;46.506;6.674;2022-07-29T02:11:38;96905.03;;;22.45;42.61
71917;BME280;59793;46.506;6.674;2022-07-29T02:14:04;96907.53;;;22.52;42.42
71917;BME280;59793;46.506;6.674;2022-07-29T02:16:31;96911.19;;;22.58;42.39
71917;BME280;59793;46.506;6.674;2022-07-29T02:19:01;96905.22;;;22.37;42.62
71917;BME280;59793;46.506;6.674;2022-07-29T02:21:27;96901.44;;;22.35;42.53
71917;BME280;59793;46.506;6.674;2022-07-29T02:23:55;96911.41;;;22.34;42.54
71917;BME280;59793;46.506;6.674;2022-07-29T02:26:24;96905.31;;;22.34;43.08
71917;BME280;59793;46.506;6.674;2022-07-29T02:28:52;96909.06;;;22.36;43.17
71917;BME280;59793;46.506;6.674;2022-07-29T02:31:22;96901.78;;;22.21;43.29
71917;BME280;59793;46.506;6.674;2022-07-29T02:33:48;96892.06;;;22.27;43.54
71917;BME280;59793;46.506;6.674;2022-07-29T02:36:14;96902.88;;;22.23;43.20
71917;BME280;59793;46.506;6.674;2022-07-29T02:38:42;96909.75;;;22.24;43.17
71917;BME280;59793;46.506;6.674;2022-07-29T02:41:24;96896.69;;;22.26;43.60
71917;BME280;59793;46.506;6.674;2022-07-29T02:43:55;96907.16;;;22.37;43.24
71917;BME280;59793;46.506;6.674;2022-07-29T02:46:27;96902.38;;;22.57;42.86
71917;BME280;59793;46.506;6.674;2022-07-29T02:49:17;96915.53;;;22.68;43.14
71917;BME280;59793;46.506;6.674;2022-07-29T02:51:49;96909.97;;;22.75;42.90
71917;BME280;59793;46.506;6.674;2022-07-29T02:54:39;96912.72;;;22.88;42.51
71917;BME280;59793;46.506;6.674;2022-07-29T02:57:32;96922.09;;;22.96;42.68
71917;BME280;59793;46.506;6.674;2022-07-29T03:00:03;96915.97;;;22.96;42.92
71917;BME280;59793;46.506;6.674;2022-07-29T03:02:33;96923.44;;;23.04;42.73
71917;BME280;59793;46.506;6.674;2022-07-29T03:05:00;96923.00;;;23.06;41.96
71917;BME280;59793;46.506;6.674;2022-07-29T03:07:27;96925.84;;;23.15;42.07
71917;BME280;59793;46.506;6.674;2022-07-29T03:09:53;96920.84;;;23.01;42.59
71917;BME280;59793;46.506;6.674;2022-07-29T03:12:19;96926.31;;;22.97;42.62
71917;BME280;59793;46.506;6.674;2022-07-29T03:14:46;96927.25;;;22.90;42.56
71917;BME280;59793;46.506;6.674;2022-07-29T03:17:12;96930.03;;;22.87;42.46
71917;BME280;59793;46.506;6.674;2022-07-29T03:19:38;96924.22;;;22.88;42.73
71917;BME280;59793;46.506;6.674;2022-07-29T03:22:04;96932.44;;;22.98;42.78
71917;BME280;59793;46.506;6.674;2022-07-29T03:24:34;96930.22;;;23.09;42.70
71917;BME280;59793;46.506;6.674;2022-07-29T03:27:00;96928.06;;;23.17;42.51
71917;BME280;59793;46.506;6.674;2022-07-29T03:29:26;96926.13;;;23.04;43.06
71917;BME280;59793;46.506;6.674;2022-07-29T03:31:52;96920.06;;;23.00;43.95
71917;BME280;59793;46.506;6.674;2022-07-29T03:34:18;96926.78;;;23.08;43.72
71917;BME280;59793;46.506;6.674;2022-07-29T03:36:43;96923.63;;;22.97;44.20
71917;BME280;59793;46.506;6.674;2022-07-29T03:39:10;96928.00;;;22.91;45.10
71917;BME280;59793;46.506;6.674;2022-07-29T03:41:38;96925.91;;;22.82;45.13
71917;BME280;59793;46.506;6.674;2022-07-29T03:44:05;96931.97;;;22.86;44.97
71917;BME280;59793;46.506;6.674;2022-07-29T03:46:33;96924.50;;;22.78;45.41
71917;BME280;59793;46.506;6.674;2022-07-29T03:49:02;96920.72;;;22.75;45.28
71917;BME280;59793;46.506;6.674;2022-07-29T03:51:28;96924.78;;;22.67;45.66
71917;BME280;59793;46.506;6.674;2022-07-29T03:53:54;96924.97;;;22.60;45.87
71917;BME280;59793;46.506;6.674;2022-07-29T03:56:22;96924.97;;;22.60;46.09
71917;BME280;59793;46.506;6.674;2022-07-29T03:58:51;96924.44;;;22.65;46.28
71917;BME280;59793;46.506;6.674;2022-07-29T04:01:18;96925.59;;;22.51;47.06
71917;BME280;59793;46.506;6.674;2022-07-29T04:03:45;96924.66;;;22.41;47.55
71917;BME280;59793;46.506;6.674;2022-07-29T04:06:11;96924.31;;;22.39;47.84
71917;BME280;59793;46.506;6.674;2022-07-29T04:08:37;96925.59;;;22.35;47.95
71917;BME280;59793;46.506;6.674;2022-07-29T04:11:03;96935.56;;;22.34;48.29
71917;BME280;59793;46.506;6.674;2022-07-29T04:13:30;96943.72;;;22.31;48.39
71917;BME280;59793;46.506;6.674;2022-07-29T04:15:56;96937.44;;;22.37;48.07
71917;BME280;59793;46.506;6.674;2022-07-29T04:18:21;96934.56;;;22.45;48.38
71917;BME280;59793;46.506;6.674;2022-07-29T04:20:46;96938.38;;;22.60;47.97
71917;BME280;59793;46.506;6.674;2022-07-29T04:23:12;96925.53;;;22.67;48.40
71917;BME280;59793;46.506;6.674;2022-07-29T04:25:38;96929.66;;;22.56;49.00
71917;BME280;59793;46.506;6.674;2022-07-29T04:28:05;96933.91;;;22.40;49.36
71917;BME280;59793;46.506;6.674;2022-07-29T04:30:31;96934.06;;;22.33;49.62
71917;BME280;59793;46.506;6.674;2022-07-29T04:32:56;96943.38;;;22.29;49.95
71917;BME280;59793;46.506;6.674;2022-07-29T04:35:22;96951.78;;;22.31;49.72
71917;BME280;59793;46.506;6.674;2022-07-29T04:37:47;96956.78;;;22.29;49.97
71917;BME280;59793;46.506;6.674;2022-07-29T04:40:13;96949.66;;;22.38;49.51
71917;BME280;59793;46.506;6.674;2022-07-29T04:42:38;96959.72;;;22.51;49.36
71917;BME280;59793;46.506;6.674;2022-07-29T04:45:04;96964.41;;;22.63;49.26
71917;BME280;59793;46.506;6.674;2022-07-29T04:47:30;96966.84;;;22.57;50.20
71917;BME280;59793;46.506;6.674;2022-07-29T04:49:55;96960.06;;;22.53;50.79
71917;BME280;59793;46.506;6.674;2022-07-29T04:52:21;96969.59;;;22.54;50.68
71917;BME280;59793;46.506;6.674;2022-07-29T04:54:47;96968.09;;;22.53;50.86
71917;BME280;59793;46.506;6.674;2022-07-29T04:57:12;96972.13;;;22.61;50.77
71917;BME280;59793;46.506;6.674;2022-07-29T04:59:38;96968.59;;;22.64;50.92
71917;BME280;59793;46.506;6.674;2022-07-29T05:02:03;96968.19;;;22.65;50.89
71917;BME280;59793;46.506;6.674;2022-07-29T05:04:28;96978.00;;;22.72;50.78
71917;BME280;59793;46.506;6.674;2022-07-29T05:06:54;96979.84;;;22.59;51.19
71917;BME280;59793;46.506;6.674;2022-07-29T05:09:19;96973.97;;;22.64;51.01
71917;BME280;59793;46.506;6.674;2022-07-29T05:11:44;96978.75;;;22.73;50.90
71917;BME280;59793;46.506;6.674;2022-07-29T05:14:10;96978.38;;;22.87;50.67
71917;BME280;59793;46.506;6.674;2022-07-29T05:16:35;96983.25;;;22.92;50.67
71917;BME280;59793;46.506;6.674;2022-07-29T05:19:00;96990.13;;;22.93;51.22
71917;BME280;59793;46.506;6.674;2022-07-29T05:21:26;96989.19;;;23.00;51.09
71917;BME280;59793;46.506;6.674;2022-07-29T05:23:51;96990.97;;;22.90;51.88
71917;BME280;59793;46.506;6.674;2022-07-29T05:26:17;96987.03;;;22.95;51.87
71917;BME280;59793;46.506;6.674;2022-07-29T05:28:42;96977.78;;;22.96;51.90
71917;BME280;59793;46.506;6.674;2022-07-29T05:31:07;96987.50;;;23.06;51.97
71917;BME280;59793;46.506;6.674;2022-07-29T05:33:33;96989.41;;;23.22;51.78
71917;BME280;59793;46.506;6.674;2022-07-29T05:35:58;96991.75;;;23.20;51.79
71917;BME280;59793;46.506;6.674;2022-07-29T05:38:24;96996.38;;;23.32;51.89
71917;BME280;59793;46.506;6.674;2022-07-29T05:40:49;96989.22;;;23.42;51.65
71917;BME280;59793;46.506;6.674;2022-07-29T05:43:14;96989.44;;;23.60;51.36
71917;BME280;59793;46.506;6.674;2022-07-29T05:45:39;96995.00;;;23.82;51.09
71917;BME280;59793;46.506;6.674;2022-07-29T05:48:05;97001.81;;;23.99;49.98
71917;BME280;59793;46.506;6.674;2022-07-29T05:50:30;97004.16;;;24.23;48.77
71917;BME280;59793;46.506;6.674;2022-07-29T05:52:55;97009.53;;;24.36;47.66
71917;BME280;59793;46.506;6.674;2022-07-29T05:55:21;97011.91;;;24.46;47.40
71917;BME280;59793;46.506;6.674;2022-07-29T05:57:46;97010.41;;;24.32;48.45
71917;BME280;59793;46.506;6.674;2022-07-29T06:00:12;97013.19;;;24.29;48.27
71917;BME280;59793;46.506;6.674;2022-07-29T06:02:37;97011.56;;;24.06;48.97
71917;BME280;59793;46.506;6.674;2022-07-29T06:05:03;97006.53;;;24.08;49.54
71917;BME280;59793;46.506;6.674;2022-07-29T06:07:28;97010.19;;;24.14;50.04
71917;BME280;59793;46.506;6.674;2022-07-29T06:09:53;97012.25;;;24.10;50.62
71917;BME280;59793;46.506;6.674;2022-07-29T06:12:19;97013.63;;;24.15;50.98
71917;BME280;59793;46.506;6.674;2022-07-29T06:14:45;97016.00;;;24.00;51.67
71917;BME280;59793;46.506;6.674;2022-07-29T06:17:10;97022.44;;;24.02;52.25
71917;BME280;59793;46.506;6.674;2022-07-29T06:19:36;97020.41;;;23.94;52.56
71917;BME280;59793;46.506;6.674;2022-07-29T06:22:02;97021.28;;;23.91;53.47
71917;BME280;59793;46.506;6.674;2022-07-29T06:24:28;97019.00;;;24.02;53.63
71917;BME280;59793;46.506;6.674;2022-07-29T06:26:53;97020.44;;;24.06;53.84
71917;BME280;59793;46.506;6.674;2022-07-29T06:29:19;97033.13;;;24.06;54.44
71917;BME280;59793;46.506;6.674;2022-07-29T06:31:44;97036.13;;;24.08;54.28
71917;BME280;59793;46.506;6.674;2022-07-29T06:34:10;97031.63;;;24.18;54.54
71917;BME280;59793;46.506;6.674;2022-07-29T06:36:36;97036.34;;;24.26;54.13
71917;BME280;59793;46.506;6.674;2022-07-29T06:39:03;97037.09;;;24.27;53.81
71917;BME280;59793;46.506;6.674;2022-07-29T06:41:28;97036.25;;;24.30;53.46
71917;BME280;59793;46.506;6.674;2022-07-29T06:43:54;97042.81;;;24.29;53.11
71917;BME280;59793;46.506;6.674;2022-07-29T06:46:21;97035.94;;;24.41;53.10
71917;BME280;59793;46.506;6.674;2022-07-29T06:48:47;97034.22;;;24.47;53.01
71917;BME280;59793;46.506;6.674;2022-07-29T06:51:13;97032.78;;;24.55;52.91
71917;BME280;59793;46.506;6.674;2022-07-29T06:53:39;97038.69;;;24.63;53.61
71917;BME280;59793;46.506;6.674;2022-07-29T06:56:06;97030.38;;;24.83;53.50
71917;BME280;59793;46.506;6.674;2022-07-29T06:58:34;97039.47;;;24.98;52.14
71917;BME280;59793;46.506;6.674;2022-07-29T07:01:00;97040.53;;;25.13;51.55
71917;BME280;59793;46.506;6.674;2022-07-29T07:03:26;97036.66;;;25.14;51.09
71917;BME280;59793;46.506;6.674;2022-07-29T07:05:53;97034.69;;;24.80;52.31
71917;BME280;59793;46.506;6.674;2022-07-29T07:08:19;97038.91;;;24.68;53.19
71917;BME280;59793;46.506;6.674;2022-07-29T07:10:45;97044.94;;;24.72;52.71
71917;BME280;59793;46.506;6.674;2022-07-29T07:13:10;97047.00;;;24.68;53.21
71917;BME280;59793;46.506;6.674;2022-07-29T07:15:36;97049.34;;;24.79;52.75
71917;BME280;59793;46.506;6.674;2022-07-29T07:18:02;97041.81;;;24.74;52.46
71917;BME280;59793;46.506;6.674;2022-07-29T07:20:28;97040.34;;;24.60;52.73
71917;BME280;59793;46.506;6.674;2022-07-29T07:22:53;97043.38;;;24.49;52.77
71917;BME280;59793;46.506;6.674;2022-07-29T07:25:19;97035.47;;;24.55;53.02
71917;BME280;59793;46.506;6.674;2022-07-29T07:27:45;97030.97;;;24.52;53.54
71917;BME280;59793;46.506;6.674;2022-07-29T07:30:10;97035.59;;;24.51;53.84
71917;BME280;59793;46.506;6.674;2022-07-29T07:32:36;97037.47;;;24.42;53.59
71917;BME280;59793;46.506;6.674;2022-07-29T07:35:03;97045.84;;;24.44;53.92
71917;BME280;59793;46.506;6.674;2022-07-29T07:37:30;97050.16;;;24.41;54.51
71917;BME280;59793;46.506;6.674;2022-07-29T07:39:55;97057.44;;;24.66;53.87
71917;BME280;59793;46.506;6.674;2022-07-29T07:42:21;97068.59;;;24.90;53.71
71917;BME280;59793;46.506;6.674;2022-07-29T07:44:46;97067.09;;;25.02;53.57
71917;BME280;59793;46.506;6.674;2022-07-29T07:47:14;97064.94;;;24.97;53.90
71917;BME280;59793;46.506;6.674;2022-07-29T07:49:39;97074.28;;;25.05;53.68
71917;BME280;59793;46.506;6.674;2022-07-29T07:52:04;97080.91;;;24.91;53.82
71917;BME280;59793;46.506;6.674;2022-07-29T07:54:30;97086.97;;;24.83;54.72
71917;BME280;59793;46.506;6.674;2022-07-29T07:56:56;97081.69;;;24.79;55.57
71917;BME280;59793;46.506;6.674;2022-07-29T07:59:22;97086.09;;;24.86;55.68
71917;BME280;59793;46.506;6.674;2022-07-29T08:01:47;97086.72;;;24.90;55.70
71917;BME280;59793;46.506;6.674;2022-07-29T08:04:12;97086.84;;;24.86;55.81
71917;BME280;59793;46.506;6.674;2022-07-29T08:06:38;97079.97;;;24.72;56.20
71917;BME280;59793;46.506;6.674;2022-07-29T08:09:04;97071.66;;;24.79;56.06
71917;BME280;59793;46.506;6.674;2022-07-29T08:11:30;97077.78;;;24.93;55.40
71917;BME280;59793;46.506;6.674;2022-07-29T08:13:55;97076.19;;;24.83;55.44
71917;BME280;59793;46.506;6.674;2022-07-29T08:16:21;97081.56;;;24.83;55.51
71917;BME280;59793;46.506;6.674;2022-07-29T08:18:46;97083.50;;;24.95;56.05
71917;BME280;59793;46.506;6.674;2022-07-29T08:21:13;97082.44;;;24.79;56.23
71917;BME280;59793;46.506;6.674;2022-07-29T08:23:39;97084.28;;;24.70;57.38
71917;BME280;59793;46.506;6.674;2022-07-29T08:26:10;97080.41;;;24.71;56.49
71917;BME280;59793;46.506;6.674;2022-07-29T08:28:39;97085.81;;;24.71;56.75
71917;BME280;59793;46.506;6.674;2022-07-29T08:31:05;97092.06;;;24.55;56.48
71917;BME280;59793;46.506;6.674;2022-07-29T08:33:30;97092.38;;;24.57;56.78
71917;BME280;59793;46.506;6.674;2022-07-29T08:35:56;97098.09;;;24.59;56.05
71917;BME280;59793;46.506;6.674;2022-07-29T08:38:21;97095.59;;;24.52;56.16
71917;BME280;59793;46.506;6.674;2022-07-29T08:40:47;97087.63;;;24.61;58.02
71917;BME280;59793;46.506;6.674;2022-07-29T08:43:12;97098.75;;;24.50;59.36
71917;BME280;59793;46.506;6.674;2022-07-29T08:45:42;97084.75;;;24.43;59.24
71917;BME280;59793;46.506;6.674;2022-07-29T08:48:09;97093.25;;;24.54;58.50
71917;BME280;59793;46.506;6.674;2022-07-29T08:50:38;97092.25;;;24.35;58.97
71917;BME280;59793;46.506;6.674;2022-07-29T08:53:03;97090.63;;;24.12;58.00
71917;BME280;59793;46.506;6.674;2022-07-29T08:55:29;97097.31;;;24.33;59.12
71917;BME280;59793;46.506;6.674;2022-07-29T08:57:56;97088.84;;;24.60;58.58
71917;BME280;59793;46.506;6.674;2022-07-29T09:00:22;97095.16;;;24.66;58.75
71917;BME280;59793;46.506;6.674;2022-07-29T09:02:51;97092.06;;;24.42;58.89
71917;BME280;59793;46.506;6.674;2022-07-29T09:05:19;97089.56;;;24.48;57.87
71917;BME280;59793;46.506;6.674;2022-07-29T09:07:44;97088.09;;;24.60;57.72
71917;BME280;59793;46.506;6.674;2022-07-29T09:10:13;97088.09;;;24.47;57.98
71917;BME280;59793;46.506;6.674;2022-07-29T09:12:38;97090.75;;;24.21;58.94
71917;BME280;59793;46.506;6.674;2022-07-29T09:15:05;97100.22;;;24.26;59.33
71917;BME280;59793;46.506;6.674;2022-07-29T09:17:45;97109.06;;;24.52;58.05
71917;BME280;59793;46.506;6.674;2022-07-29T09:20:14;97105.97;;;24.41;58.40
71917;BME280;59793;46.506;6.674;2022-07-29T09:22:40;97114.22;;;24.33;58.50
71917;BME280;59793;46.506;6.674;2022-07-29T09:25:06;97112.81;;;24.16;58.66
71917;BME280;59793;46.506;6.674;2022-07-29T09:27:31;97115.31;;;24.36;58.20
71917;BME280;59793;46.506;6.674;2022-07-29T09:29:58;97111.13;;;24.35;57.78
71917;BME280;59793;46.506;6.674;2022-07-29T09:32:24;97108.03;;;24.49;57.14
71917;BME280;59793;46.506;6.674;2022-07-29T09:34:51;97102.94;;;24.64;57.01
71917;BME280;59793;46.506;6.674;2022-07-29T09:37:36;97105.22;;;24.40;57.72
71917;BME280;59793;46.506;6.674;2022-07-29T09:40:11;97105.94;;;24.28;58.29
71917;BME280;59793;46.506;6.674;2022-07-29T09:42:37;97105.31;;;24.49;57.82
71917;BME280;59793;46.506;6.674;2022-07-29T09:45:02;97105.75;;;24.48;57.57
71917;BME280;59793;46.506;6.674;2022-07-29T09:47:41;97105.31;;;24.62;56.83
71917;BME280;59793;46.506;6.674;2022-07-29T09:50:06;97105.50;;;24.29;58.40
71917;BME280;59793;46.506;6.674;2022-07-29T09:52:44;97101.53;;;24.21;58.46
71917;BME280;59793;46.506;6.674;2022-07-29T09:55:10;97093.75;;;24.36;57.93
71917;BME280;59793;46.506;6.674;2022-07-29T09:57:36;97102.59;;;24.37;58.22
71917;BME280;59793;46.506;6.674;2022-07-29T10:00:05;97104.78;;;24.42;57.95
71917;BME280;59793;46.506;6.674;2022-07-29T10:02:33;97115.75;;;24.47;57.72
71917;BME280;59793;46.506;6.674;2022-07-29T10:05:00;97109.16;;;24.36;57.41
71917;BME280;59793;46.506;6.674;2022-07-29T10:07:46;97106.47;;;24.36;57.94
71917;BME280;59793;46.506;6.674;2022-07-29T10:10:28;97114.13;;;24.75;56.63
71917;BME280;59793;46.506;6.674;2022-07-29T10:12:56;97116.22;;;24.46;56.81
71917;BME280;59793;46.506;6.674;2022-07-29T10:15:33;97118.56;;;24.69;56.83
71917;BME280;59793;46.506;6.674;2022-07-29T10:18:02;97126.56;;;24.60;57.04
71917;BME280;59793;46.506;6.674;2022-07-29T10:20:28;97121.47;;;24.88;56.02
71917;BME280;59793;46.506;6.674;2022-07-29T10:22:54;97124.28;;;24.71;56.04
71917;BME280;59793;46.506;6.674;2022-07-29T10:25:23;97133.00;;;24.88;55.35
71917;BME280;59793;46.506;6.674;2022-07-29T10:27:49;97126.31;;;24.80;55.55
71917;BME280;59793;46.506;6.674;2022-07-29T10:30:17;97127.38;;;24.83;55.68
71917;BME280;59793;46.506;6.674;2022-07-29T10:35:31;97129.44;;;24.78;56.44
71917;BME280;59793;46.506;6.674;2022-07-29T10:43:57;97121.34;;;24.78;56.80
71917;BME280;59793;46.506;6.674;2022-07-29T10:46:24;97135.06;;;24.71;57.13
71917;BME280;59793;46.506;6.674;2022-07-29T10:49:14;97128.69;;;24.78;57.66
71917;BME280;59793;46.506;6.674;2022-07-29T10:57:14;97130.25;;;25.01;55.16
71917;BME280;59793;46.506;6.674;2022-07-29T10:59:40;97136.84;;;24.87;54.39
71917;BME280;59793;46.506;6.674;2022-07-29T11:05:11;97143.13;;;24.71;54.54
71917;BME280;59793;46.506;6.674;2022-07-29T11:07:40;97154.13;;;24.64;55.08
71917;BME280;59793;46.506;6.674;2022-07-29T11:15:04;97183.44;;;24.07;56.25
71917;BME280;59793;46.506;6.674;2022-07-29T11:20:38;97206.25;;;23.74;58.84
71917;BME280;59793;46.506;6.674;2022-07-29T11:25:43;97215.75;;;23.62;60.70
71917;BME280;59793;46.506;6.674;2022-07-29T11:28:12;97229.84;;;23.50;62.58
71917;BME280;59793;46.506;6.674;2022-07-29T11:30:50;97241.53;;;23.10;62.05
71917;BME280;59793;46.506;6.674;2022-07-29T11:33:33;97250.75;;;22.37;64.51
71917;BME280;59793;46.506;6.674;2022-07-29T11:36:13;97271.75;;;21.99;66.53
71917;BME280;59793;46.506;6.674;2022-07-29T11:38:39;97283.06;;;21.86;65.91
71917;BME280;59793;46.506;6.674;2022-07-29T11:43:46;97279.47;;;21.73;66.48
71917;BME280;59793;46.506;6.674;2022-07-29T11:46:13;97287.09;;;21.51;66.42
71917;BME280;59793;46.506;6.674;2022-07-29T11:48:42;97286.13;;;21.41;67.52
71917;BME280;59793;46.506;6.674;2022-07-29T11:51:11;97281.91;;;21.40;68.20
71917;BME280;59793;46.506;6.674;2022-07-29T11:53:38;97290.41;;;21.35;69.22
71917;BME280;59793;46.506;6.674;2022-07-29T11:56:07;97286.16;;;21.38;69.39
71917;BME280;59793;46.506;6.674;2022-07-29T11:58:33;97288.09;;;21.61;68.28
71917;BME280;59793;46.506;6.674;2022-07-29T12:00:59;97293.72;;;21.70;69.52
71917;BME280;59793;46.506;6.674;2022-07-29T12:03:26;97285.88;;;21.79;68.46
71917;BME280;59793;46.506;6.674;2022-07-29T12:05:52;97305.16;;;21.94;67.62
71917;BME280;59793;46.506;6.674;2022-07-29T12:08:19;97303.38;;;21.87;66.30
71917;BME280;59793;46.506;6.674;2022-07-29T12:10:47;97297.84;;;21.75;67.23
71917;BME280;59793;46.506;6.674;2022-07-29T12:13:14;97297.41;;;22.00;68.86
71917;BME280;59793;46.506;6.674;2022-07-29T12:15:42;97307.47;;;21.95;67.77
71917;BME280;59793;46.506;6.674;2022-07-29T12:18:14;97314.25;;;22.00;68.92
71917;BME280;59793;46.506;6.674;2022-07-29T12:20:40;97309.78;;;21.93;67.67
71917;BME280;59793;46.506;6.674;2022-07-29T12:23:07;97312.81;;;21.95;65.64
71917;BME280;59793;46.506;6.674;2022-07-29T12:25:41;97304.28;;;22.01;66.47
71917;BME280;59793;46.506;6.674;2022-07-29T12:28:10;97312.13;;;22.15;65.02
71917;BME280;59793;46.506;6.674;2022-07-29T12:30:45;97317.09;;;22.16;65.23
71917;BME280;59793;46.506;6.674;2022-07-29T12:33:12;97308.97;;;21.96;65.87
71917;BME280;59793;46.506;6.674;2022-07-29T12:35:38;97314.31;;;21.96;64.91
71917;BME280;59793;46.506;6.674;2022-07-29T12:38:05;97311.38;;;21.91;66.72
71917;BME280;59793;46.506;6.674;2022-07-29T12:40:30;97308.69;;;21.91;65.23
71917;BME280;59793;46.506;6.674;2022-07-29T12:43:10;97305.88;;;21.98;65.61
71917;BME280;59793;46.506;6.674;2022-07-29T12:45:38;97310.47;;;21.98;65.40
71917;BME280;59793;46.506;6.674;2022-07-29T12:48:05;97318.13;;;21.99;63.89
71917;BME280;59793;46.506;6.674;2022-07-29T12:50:31;97307.47;;;21.95;64.11
71917;BME280;59793;46.506;6.674;2022-07-29T12:53:17;97311.38;;;21.91;65.05
71917;BME280;59793;46.506;6.674;2022-07-29T12:55:46;97311.06;;;22.09;65.71
71917;BME280;59793;46.506;6.674;2022-07-29T12:58:45;97312.47;;;21.93;67.80
71917;BME280;59793;46.506;6.674;2022-07-29T13:01:12;97306.34;;;21.93;67.49
71917;BME280;59793;46.506;6.674;2022-07-29T13:03:57;97312.25;;;21.84;68.54
71917;BME280;59793;46.506;6.674;2022-07-29T13:09:14;97314.03;;;21.67;68.56
71917;BME280;59793;46.506;6.674;2022-07-29T13:11:41;97318.72;;;21.63;68.92
71917;BME280;59793;46.506;6.674;2022-07-29T13:14:08;97321.97;;;21.75;68.89
71917;BME280;59793;46.506;6.674;2022-07-29T13:16:36;97321.44;;;21.83;68.58
71917;BME280;59793;46.506;6.674;2022-07-29T13:19:08;97324.38;;;21.92;68.64
71917;BME280;59793;46.506;6.674;2022-07-29T13:21:34;97327.50;;;22.11;69.26
71917;BME280;59793;46.506;6.674;2022-07-29T13:23:59;97319.06;;;22.12;69.08
71917;BME280;59793;46.506;6.674;2022-07-29T13:26:25;97323.31;;;22.10;68.48
71917;BME280;59793;46.506;6.674;2022-07-29T13:28:50;97323.91;;;22.21;67.94
71917;BME280;59793;46.506;6.674;2022-07-29T13:31:16;97328.69;;;22.10;66.79
71917;BME280;59793;46.506;6.674;2022-07-29T13:33:41;97326.19;;;22.23;66.47
71917;BME280;59793;46.506;6.674;2022-07-29T13:36:07;97329.84;;;22.32;64.94
71917;BME280;59793;46.506;6.674;2022-07-29T13:38:32;97337.28;;;22.45;65.40
71917;BME280;59793;46.506;6.674;2022-07-29T13:40:58;97334.72;;;22.57;65.44
71917;BME280;59793;46.506;6.674;2022-07-29T13:43:23;97331.50;;;22.66;64.29
71917;BME280;59793;46.506;6.674;2022-07-29T13:45:49;97318.28;;;22.75;63.25